Time;durP1;ratioP1;P1;durP2;ratioP2;P2;SDS_P1;SDS_P2;PMS_P1;PMS_P2;Temp;Humidity;BMP_temperature;BMP_pressure;BME280_temperature;BME280_humidity;BME280_pressure;Samples;Min_cycle;Max_cycle;Signal;HPM_P1;HPM_P2
2023/03/04 00:02:08;;;;;;;;;;;;;;;15.38;48.70;100943.53;4999116;28;1906;-54
2023/03/04 00:04:34;;;;;;;;;;;;;;;16.20;46.92;100948.78;4999515;28;1135;-53
2023/03/04 00:07:00;;;;;;;;;;;;;;;17.43;44.14;100942.78;4998981;28;885;-52
2023/03/04 00:09:25;;;;;;;;;;;;;;;16.60;45.63;100957.44;4998968;28;1076;-53
2023/03/04 00:11:51;;;;;;;;;;;;;;;16.04;47.05;100945.09;4999256;28;1168;-50
2023/03/04 00:14:16;;;;;;;;;;;;;;;15.71;48.19;100946.22;4998619;28;1056;-50
2023/03/04 00:16:42;;;;;;;;;;;;;;;15.54;48.35;100949.13;4999201;28;1017;-51
2023/03/04 00:19:08;;;;;;;;;;;;;;;15.37;48.67;100949.25;4998336;28;978;-48
2023/03/04 00:21:34;;;;;;;;;;;;;;;16.76;45.53;100956.41;4998672;28;1069;-48
2023/03/04 00:23:59;;;;;;;;;;;;;;;17.33;44.07;100958.44;4998710;28;1987;-50
2023/03/04 00:26:25;;;;;;;;;;;;;;;16.25;46.68;100956.19;4994805;28;1375;-51
2023/03/04 00:28:50;;;;;;;;;;;;;;;15.88;47.56;100952.44;4995619;28;1319;-47
2023/03/04 00:31:16;;;;;;;;;;;;;;;15.63;48.08;100964.00;4998875;28;1123;-51
2023/03/04 00:33:43;;;;;;;;;;;;;;;15.46;48.83;100966.03;4998433;28;1100;-52
2023/03/04 00:36:09;;;;;;;;;;;;;;;17.04;44.92;100968.03;4997292;28;1364;-49
2023/03/04 00:38:34;;;;;;;;;;;;;;;16.61;45.65;100964.59;4997898;28;1684;-46
2023/03/04 00:41:01;;;;;;;;;;;;;;;15.95;47.27;100957.69;5013296;28;1102;-46
2023/03/04 00:43:26;;;;;;;;;;;;;;;15.65;48.27;100953.59;4997955;28;1910;-49
2023/03/04 00:45:52;;;;;;;;;;;;;;;15.47;48.58;100951.25;5013814;28;1215;-48
2023/03/04 00:48:18;;;;;;;;;;;;;;;16.45;46.26;100949.97;4998050;28;1136;-48
2023/03/04 00:50:43;;;;;;;;;;;;;;;17.55;43.80;100944.41;4998601;28;1136;-50
2023/03/04 00:53:09;;;;;;;;;;;;;;;16.45;46.04;100938.16;4998076;28;1060;-49
2023/03/04 00:55:35;;;;;;;;;;;;;;;15.98;47.31;100940.69;4995812;28;1123;-51
2023/03/04 00:58:00;;;;;;;;;;;;;;;15.67;48.33;100934.97;4997710;28;1092;-49
2023/03/04 01:00:26;;;;;;;;;;;;;;;15.52;48.40;100934.88;4998733;28;1120;-49
2023/03/04 01:02:52;;;;;;;;;;;;;;;16.73;45.75;100934.97;5013054;28;1975;-49
2023/03/04 01:05:17;;;;;;;;;;;;;;;17.49;43.90;100932.59;5012972;28;1794;-50
2023/03/04 01:07:43;;;;;;;;;;;;;;;16.36;46.41;100937.88;4998033;28;993;-53
2023/03/04 01:10:09;;;;;;;;;;;;;;;15.95;47.29;100930.25;4997952;28;1057;-52
2023/03/04 01:12:34;;;;;;;;;;;;;;;15.72;48.17;100940.50;4997861;28;1214;-50
2023/03/04 01:15:00;;;;;;;;;;;;;;;15.54;48.39;100930.78;5013235;28;1188;-53
2023/03/04 01:17:26;;;;;;;;;;;;;;;16.00;47.56;100934.94;4997321;28;1088;-52
2023/03/04 01:19:51;;;;;;;;;;;;;;;17.43;44.04;100937.28;4997478;28;1160;-52
2023/03/04 01:22:17;;;;;;;;;;;;;;;16.45;46.12;100933.50;4997556;28;1910;-52
2023/03/04 01:24:43;;;;;;;;;;;;;;;15.96;47.32;100931.88;4997863;28;1119;-50
2023/03/04 01:27:09;;;;;;;;;;;;;;;15.68;47.92;100925.69;4997615;28;1096;-48
2023/03/04 01:29:34;;;;;;;;;;;;;;;15.48;48.49;100922.78;5012621;28;1234;-51
2023/03/04 01:32:01;;;;;;;;;;;;;;;16.39;46.52;100929.09;4997312;28;1032;-51
2023/03/04 01:34:26;;;;;;;;;;;;;;;17.48;44.00;100921.88;4997188;28;1069;-52
2023/03/04 01:36:52;;;;;;;;;;;;;;;16.40;46.36;100923.31;5012755;28;1131;-51
2023/03/04 01:39:17;;;;;;;;;;;;;;;15.92;47.57;100914.31;4997510;28;1141;-52
2023/03/04 01:41:43;;;;;;;;;;;;;;;15.68;48.03;100914.72;4997211;28;1053;-50
2023/03/04 01:44:08;;;;;;;;;;;;;;;15.51;48.66;100911.28;4997428;28;1914;-48
2023/03/04 01:46:34;;;;;;;;;;;;;;;15.33;49.14;100907.88;5012403;28;1136;-50
2023/03/04 01:49:00;;;;;;;;;;;;;;;16.82;45.44;100909.72;4997538;28;1155;-51
2023/03/04 01:51:25;;;;;;;;;;;;;;;17.53;43.63;100899.88;4996939;28;1099;-51
2023/03/04 01:53:53;;;;;;;;;;;;;;;16.37;46.56;100904.66;4997228;28;864;-53
2023/03/04 01:56:21;;;;;;;;;;;;;;;15.88;47.50;100899.50;5011638;28;1143;-52
2023/03/04 01:59:07;;;;;;;;;;;;;;;15.63;48.23;100892.75;4997321;28;1135;-51
2023/03/04 02:01:32;;;;;;;;;;;;;;;15.87;47.74;100900.59;4979388;28;1108;-53
2023/03/04 02:03:58;;;;;;;;;;;;;;;17.41;44.18;100889.97;4996991;28;1914;-52
2023/03/04 02:06:23;;;;;;;;;;;;;;;16.70;45.70;100893.50;4996571;28;1119;-51
2023/03/04 02:08:49;;;;;;;;;;;;;;;16.08;47.35;100894.09;5012407;28;1064;-50
2023/03/04 02:11:15;;;;;;;;;;;;;;;15.78;47.94;100894.75;5011793;28;1297;-51
2023/03/04 02:13:40;;;;;;;;;;;;;;;15.60;48.10;100890.53;4979540;28;1048;-50
2023/03/04 02:16:06;;;;;;;;;;;;;;;15.45;48.56;100893.16;4997036;28;1183;-52
2023/03/04 02:18:32;;;;;;;;;;;;;;;16.78;45.75;100890.22;4996476;28;834;-52
2023/03/04 02:20:59;;;;;;;;;;;;;;;17.68;43.37;100888.84;5011459;28;1131;-50
2023/03/04 02:23:42;;;;;;;;;;;;;;;16.50;46.06;100891.53;4996923;28;1981;-52
2023/03/04 02:26:08;;;;;;;;;;;;;;;15.99;47.57;100892.13;4979076;28;1095;-51
2023/03/04 02:28:34;;;;;;;;;;;;;;;15.71;47.97;100886.75;4996915;28;1084;-49
2023/03/04 02:30:59;;;;;;;;;;;;;;;15.56;48.30;100889.41;5011703;28;1159;-53
2023/03/04 02:33:25;;;;;;;;;;;;;;;15.34;49.05;100881.28;5011707;28;1631;-49
2023/03/04 02:35:51;;;;;;;;;;;;;;;16.65;45.82;100880.59;4996594;28;1221;-53
2023/03/04 02:38:17;;;;;;;;;;;;;;;17.04;44.60;100888.34;4995369;28;1188;-53
2023/03/04 02:40:44;;;;;;;;;;;;;;;16.14;46.78;100888.66;4996485;28;1045;-51
2023/03/04 02:43:10;;;;;;;;;;;;;;;15.80;47.67;100894.53;4996412;28;1906;-51
2023/03/04 02:45:36;;;;;;;;;;;;;;;15.52;48.71;100894.56;4996696;28;1229;-52
2023/03/04 02:48:04;;;;;;;;;;;;;;;15.34;48.88;100892.25;4979091;28;1307;-49
2023/03/04 02:50:30;;;;;;;;;;;;;;;16.73;45.90;100896.53;5011826;28;1132;-53
2023/03/04 02:52:56;;;;;;;;;;;;;;;17.41;43.84;100902.91;5011285;28;1494;-53
2023/03/04 02:55:21;;;;;;;;;;;;;;;16.34;46.56;100905.19;4995767;28;889;-50
2023/03/04 02:57:47;;;;;;;;;;;;;;;15.92;47.72;100906.09;5011700;28;1303;-52
2023/03/04 03:00:13;;;;;;;;;;;;;;;15.64;48.38;100913.59;5011510;28;1127;-53
2023/03/04 03:02:40;;;;;;;;;;;;;;;15.44;48.65;100910.69;5010880;28;1969;-51
2023/03/04 03:05:06;;;;;;;;;;;;;;;16.67;45.93;100924.25;4996465;28;1096;-51
2023/03/04 03:07:33;;;;;;;;;;;;;;;17.37;44.08;100915.56;5011310;28;1261;-53
2023/03/04 03:10:00;;;;;;;;;;;;;;;16.29;46.62;100913.41;4994798;28;1286;-51
2023/03/04 03:12:25;;;;;;;;;;;;;;;15.90;47.38;100908.28;4996200;28;1084;-51
2023/03/04 03:14:51;;;;;;;;;;;;;;;15.62;48.13;100910.25;4978544;28;1017;-51
2023/03/04 03:17:19;;;;;;;;;;;;;;;15.47;48.43;100912.91;4995974;28;1337;-47
2023/03/04 03:19:45;;;;;;;;;;;;;;;16.66;45.73;100923.44;4986492;28;997;-51
2023/03/04 03:22:12;;;;;;;;;;;;;;;17.15;44.31;100919.38;5015237;28;1902;-52
2023/03/04 03:24:38;;;;;;;;;;;;;;;16.17;46.96;100915.53;5014614;28;1249;-49
2023/03/04 03:27:04;;;;;;;;;;;;;;;15.81;47.71;100913.44;5014896;28;1051;-50
2023/03/04 03:29:30;;;;;;;;;;;;;;;15.56;48.31;100908.59;5015014;28;1166;-48
2023/03/04 03:31:55;;;;;;;;;;;;;;;15.39;48.70;100916.97;4999717;28;1024;-52
2023/03/04 03:34:21;;;;;;;;;;;;;;;16.85;45.49;100911.94;4999635;28;1294;-52
2023/03/04 03:36:47;;;;;;;;;;;;;;;17.10;44.50;100911.16;5014990;28;1159;-52
2023/03/04 03:39:14;;;;;;;;;;;;;;;16.19;46.96;100919.69;5014412;28;1247;-54
2023/03/04 03:41:40;;;;;;;;;;;;;;;15.81;47.93;100913.44;4999493;28;1040;-51
2023/03/04 03:44:06;;;;;;;;;;;;;;;15.59;48.50;100916.28;4999475;28;1910;-50
2023/03/04 03:46:31;;;;;;;;;;;;;;;16.91;45.30;100913.59;4999604;28;1215;-49
2023/03/04 03:48:57;;;;;;;;;;;;;;;17.15;44.54;100915.81;4999729;28;1123;-49
2023/03/04 03:51:22;;;;;;;;;;;;;;;16.26;46.61;100908.47;4999303;28;1148;-53
2023/03/04 03:53:48;;;;;;;;;;;;;;;15.89;47.51;100909.38;4998502;28;1158;-51
2023/03/04 03:56:13;;;;;;;;;;;;;;;15.68;48.03;100909.22;4999453;28;895;-51
2023/03/04 03:58:39;;;;;;;;;;;;;;;15.47;48.61;100912.91;4999242;28;1052;-51
2023/03/04 04:01:04;;;;;;;;;;;;;;;16.23;47.11;100909.81;4999109;28;1028;-50
2023/03/04 04:03:30;;;;;;;;;;;;;;;17.35;43.98;100910.34;4999632;28;1906;-51
2023/03/04 04:05:56;;;;;;;;;;;;;;;16.31;46.72;100905.72;4998734;28;1028;-52
2023/03/04 04:08:21;;;;;;;;;;;;;;;15.87;47.77;100906.88;4999528;28;1103;-53
2023/03/04 04:10:47;;;;;;;;;;;;;;;15.60;48.27;100917.09;4999319;28;1080;-52
2023/03/04 04:13:12;;;;;;;;;;;;;;;16.06;47.22;100915.50;4999551;28;1060;-51
2023/03/04 04:15:38;;;;;;;;;;;;;;;17.44;44.01;100919.66;4998680;28;1088;-56
2023/03/04 04:18:04;;;;;;;;;;;;;;;16.77;45.27;100918.75;4998116;28;1148;-56
2023/03/04 04:20:29;;;;;;;;;;;;;;;16.13;46.89;100926.25;4999170;28;1435;-59
2023/03/04 04:22:55;;;;;;;;;;;;;;;15.80;47.74;100922.75;4998615;28;1969;-56
2023/03/04 04:25:21;;;;;;;;;;;;;;;15.55;48.50;100923.38;5013253;28;1120;-58
2023/03/04 04:27:46;;;;;;;;;;;;;;;17.05;44.88;100920.19;4998736;28;1230;-58
2023/03/04 04:30:12;;;;;;;;;;;;;;;16.80;45.49;100925.63;4998118;28;1092;-60
2023/03/04 04:32:37;;;;;;;;;;;;;;;16.09;47.25;100925.13;4998573;28;1049;-58
2023/03/04 04:35:03;;;;;;;;;;;;;;;15.80;47.77;100925.50;4998835;28;1104;-57
2023/03/04 04:37:29;;;;;;;;;;;;;;;15.56;48.27;100927.78;4998629;28;1056;-57
2023/03/04 04:39:54;;;;;;;;;;;;;;;15.37;48.90;100924.59;4998655;28;1196;-57
2023/03/04 04:42:20;;;;;;;;;;;;;;;16.07;47.32;100928.13;4998375;28;1983;-57
2023/03/04 04:44:46;;;;;;;;;;;;;;;17.42;43.91;100935.63;4998249;28;1117;-57
2023/03/04 04:47:12;;;;;;;;;;;;;;;16.55;45.90;100932.69;4998406;28;1040;-59
2023/03/04 04:49:37;;;;;;;;;;;;;;;15.95;47.27;100946.72;4998402;28;1065;-59
2023/03/04 04:52:03;;;;;;;;;;;;;;;15.66;48.34;100949.78;4998556;28;1171;-54
2023/03/04 04:54:28;;;;;;;;;;;;;;;15.45;48.85;100953.47;4998135;28;1033;-51
2023/03/04 04:56:54;;;;;;;;;;;;;;;16.88;45.59;100955.31;4997928;28;1152;-57
2023/03/04 04:59:20;;;;;;;;;;;;;;;17.34;44.14;100954.59;4997522;28;1292;-60
2023/03/04 05:01:45;;;;;;;;;;;;;;;16.30;46.71;100952.63;4997465;28;1095;-58
2023/03/04 05:04:11;;;;;;;;;;;;;;;15.93;47.71;100959.84;4997282;28;2005;-59
2023/03/04 05:06:37;;;;;;;;;;;;;;;15.64;48.16;100967.56;4997068;28;1061;-57
2023/03/04 05:09:03;;;;;;;;;;;;;;;15.46;48.64;100966.03;4997522;28;1092;-60
2023/03/04 05:11:28;;;;;;;;;;;;;;;17.00;45.29;100977.91;4997813;28;1064;-60
2023/03/04 05:13:54;;;;;;;;;;;;;;;16.79;45.46;100973.41;4998102;28;1075;-57
2023/03/04 05:16:19;;;;;;;;;;;;;;;16.10;47.00;100980.81;4997291;28;1196;-56
2023/03/04 05:18:45;;;;;;;;;;;;;;;15.71;48.18;100974.50;4997707;28;1144;-55
2023/03/04 05:21:11;;;;;;;;;;;;;;;15.51;48.67;100974.31;4997715;28;1072;-55
2023/03/04 05:23:37;;;;;;;;;;;;;;;15.48;48.58;100983.06;4997847;28;1973;-55
2023/03/04 05:26:03;;;;;;;;;;;;;;;17.12;44.96;100990.56;4997460;28;1068;-55
2023/03/04 05:28:29;;;;;;;;;;;;;;;16.93;45.01;100989.16;4997738;28;1077;-56
2023/03/04 05:30:54;;;;;;;;;;;;;;;16.11;47.21;100987.94;4996949;28;1131;-60
2023/03/04 05:33:20;;;;;;;;;;;;;;;15.82;47.87;100991.03;4997417;28;1044;-59
2023/03/04 05:35:47;;;;;;;;;;;;;;;15.59;48.42;101003.19;4997275;28;1223;-57
2023/03/04 05:38:13;;;;;;;;;;;;;;;15.42;48.97;101000.53;4997363;28;1135;-58
2023/03/04 05:40:38;;;;;;;;;;;;;;;17.01;44.95;100993.31;4997468;28;1155;-58
2023/03/04 05:43:04;;;;;;;;;;;;;;;17.51;43.82;100992.81;4996901;28;1906;-58
2023/03/04 05:45:30;;;;;;;;;;;;;;;16.40;46.26;100991.13;4996462;28;1168;-58
2023/03/04 05:47:55;;;;;;;;;;;;;;;15.96;47.51;100994.97;4997156;28;1448;-58
2023/03/04 05:50:21;;;;;;;;;;;;;;;15.74;48.14;100989.59;4997044;28;1207;-58
2023/03/04 05:52:47;;;;;;;;;;;;;;;15.53;48.33;100983.94;4997118;28;1068;-58
2023/03/04 05:55:13;;;;;;;;;;;;;;;16.93;45.38;100991.09;4996704;28;1171;-58
2023/03/04 05:57:39;;;;;;;;;;;;;;;17.06;44.57;100986.97;4996810;28;1144;-56
2023/03/04 06:00:04;;;;;;;;;;;;;;;16.21;46.62;100988.81;4996923;28;1119;-57
2023/03/04 06:02:38;;;;;;;;;;;;;;;15.83;47.91;100987.22;4996610;28;1918;-58
2023/03/04 06:05:03;;;;;;;;;;;;;;;15.62;48.27;100992.50;4996815;28;1275;-57
2023/03/04 06:07:29;;;;;;;;;;;;;;;15.42;48.79;100987.69;4996516;28;1247;-56
2023/03/04 06:09:55;;;;;;;;;;;;;;;16.14;47.07;100988.22;4996452;28;1175;-58
2023/03/04 06:12:20;;;;;;;;;;;;;;;17.47;43.78;100986.22;4996811;28;1212;-58
2023/03/04 06:14:46;;;;;;;;;;;;;;;16.32;46.81;100994.38;4997741;28;1203;-58
2023/03/04 06:17:11;;;;;;;;;;;;;;;16.50;46.06;100999.41;4996841;28;1266;-58
2023/03/04 06:19:37;;;;;;;;;;;;;;;15.89;47.11;100997.97;4996212;28;1235;-57
2023/03/04 06:22:03;;;;;;;;;;;;;;;15.57;47.38;100995.19;4996212;28;1353;-57
2023/03/04 06:24:28;;;;;;;;;;;;;;;16.51;45.92;100997.47;4996844;28;1906;-58
2023/03/04 06:26:54;;;;;;;;;;;;;;;15.84;47.55;100997.09;4996989;28;1128;-58
2023/03/04 06:29:19;;;;;;;;;;;;;;;17.77;43.17;100999.94;4996255;28;1088;-57
2023/03/04 06:31:45;;;;;;;;;;;;;;;17.08;44.62;100995.75;4996562;28;1115;-57
2023/03/04 06:34:10;;;;;;;;;;;;;;;16.13;46.43;100994.81;4996737;28;1072;-58
2023/03/04 06:36:36;;;;;;;;;;;;;;;15.81;46.51;100989.38;4996740;28;1187;-58
2023/03/04 06:39:02;;;;;;;;;;;;;;;15.69;46.28;100990.34;4996364;28;1219;-59
2023/03/04 06:41:28;;;;;;;;;;;;;;;16.17;46.32;100984.13;4996799;28;1172;-57
2023/03/04 06:43:53;;;;;;;;;;;;;;;15.93;47.05;100981.78;4995639;28;2383;-56
2023/03/04 06:46:19;;;;;;;;;;;;;;;15.88;47.21;100984.50;4996514;28;1222;-58
2023/03/04 06:48:44;;;;;;;;;;;;;;;17.08;45.08;100982.03;4996450;28;1116;-58
2023/03/04 06:51:10;;;;;;;;;;;;;;;16.03;46.75;100975.53;4996420;28;990;-57
2023/03/04 06:53:36;;;;;;;;;;;;;;;16.79;45.93;100976.16;4997357;28;1142;-60
2023/03/04 06:56:01;;;;;;;;;;;;;;;16.42;46.40;100970.56;5000357;28;1498;-55
2023/03/04 06:58:27;;;;;;;;;;;;;;;16.09;47.41;100969.00;5000310;28;1208;-55
2023/03/04 07:00:52;;;;;;;;;;;;;;;17.64;43.69;100959.25;4999926;28;1167;-56
2023/03/04 07:03:18;;;;;;;;;;;;;;;16.32;46.35;100958.69;5000173;28;1914;-57
2023/03/04 07:05:44;;;;;;;;;;;;;;;15.96;46.82;100948.34;5000229;28;1120;-56
2023/03/04 07:08:09;;;;;;;;;;;;;;;16.04;46.83;100950.59;4999731;28;1139;-55
2023/03/04 07:10:35;;;;;;;;;;;;;;;16.42;46.43;100945.00;4999698;28;1084;-58
2023/03/04 07:13:01;;;;;;;;;;;;;;;15.96;46.68;100948.34;4999806;28;1052;-57
2023/03/04 07:15:28;;;;;;;;;;;;;;;15.74;46.59;100941.06;5000389;28;1195;-56
2023/03/04 07:17:54;;;;;;;;;;;;;;;16.68;45.95;100947.88;4999835;28;1197;-57
2023/03/04 07:20:20;;;;;;;;;;;;;;;15.94;46.84;100949.72;4999399;28;1142;-56
2023/03/04 07:22:45;;;;;;;;;;;;;;;17.23;45.13;100945.50;4999956;28;1957;-58
2023/03/04 07:25:11;;;;;;;;;;;;;;;16.69;45.67;100944.84;4999595;28;966;-58
2023/03/04 07:27:37;;;;;;;;;;;;;;;16.06;46.73;100931.97;5000400;28;1135;-58
2023/03/04 07:30:06;;;;;;;;;;;;;;;17.68;43.79;100930.09;4999550;28;942;-58
2023/03/04 07:32:33;;;;;;;;;;;;;;;16.45;46.28;100941.72;4999363;28;1156;-60
2023/03/04 07:34:58;;;;;;;;;;;;;;;17.36;44.69;100936.72;4987046;28;1105;-61
2023/03/04 07:37:24;;;;;;;;;;;;;;;17.16;44.64;100932.03;4999571;28;1176;-62
2023/03/04 07:39:50;;;;;;;;;;;;;;;16.40;46.36;100931.56;4999608;28;1065;-62
2023/03/04 07:42:15;;;;;;;;;;;;;;;16.08;46.29;100935.25;4999305;28;1910;-62
2023/03/04 07:44:50;;;;;;;;;;;;;;;16.39;46.28;100937.31;5014027;28;1405;-61
2023/03/04 07:47:15;;;;;;;;;;;;;;;16.95;45.42;100930.38;4999846;28;1160;-61
2023/03/04 07:49:41;;;;;;;;;;;;;;;16.19;46.81;100935.31;4999080;28;1208;-61
2023/03/04 07:52:07;;;;;;;;;;;;;;;17.42;44.59;100935.63;4998772;28;1164;-61
2023/03/04 07:54:33;;;;;;;;;;;;;;;16.50;46.14;100933.53;4999081;28;1060;-60
2023/03/04 07:56:58;;;;;;;;;;;;;;;16.11;46.79;100938.56;4999415;28;888;-59
2023/03/04 07:59:24;;;;;;;;;;;;;;;15.95;46.51;100935.75;4998082;28;1188;-61
2023/03/04 08:01:49;;;;;;;;;;;;;;;16.77;45.93;100937.97;4999113;28;1322;-56
2023/03/04 08:04:15;;;;;;;;;;;;;;;16.11;46.59;100933.91;4998793;28;1978;-56
2023/03/04 08:06:41;;;;;;;;;;;;;;;16.38;46.87;100933.75;4998500;28;1036;-58
2023/03/04 08:09:07;;;;;;;;;;;;;;;16.83;45.89;100930.59;4998871;28;1263;-56
2023/03/04 08:11:33;;;;;;;;;;;;;;;16.16;46.70;100927.59;4999285;28;1127;-59
2023/03/04 08:13:58;;;;;;;;;;;;;;;15.94;46.21;100938.75;4998553;28;1064;-56
2023/03/04 08:16:24;;;;;;;;;;;;;;;17.43;44.96;100920.78;4999274;28;1168;-59
2023/03/04 08:18:51;;;;;;;;;;;;;;;16.40;46.57;100930.75;4998981;28;1155;-58
2023/03/04 08:21:19;;;;;;;;;;;;;;;16.56;46.71;100924.22;4981223;28;1216;-56
2023/03/04 08:23:45;;;;;;;;;;;;;;;17.09;45.28;100926.81;4998452;28;1910;-56
2023/03/04 08:26:11;;;;;;;;;;;;;;;16.28;46.56;100922.72;4998793;28;1108;-58
2023/03/04 08:28:37;;;;;;;;;;;;;;;17.02;45.60;100920.75;4998265;28;1157;-58
2023/03/04 08:31:03;;;;;;;;;;;;;;;16.35;46.75;100919.75;4998426;28;1077;-58
2023/03/04 08:33:28;;;;;;;;;;;;;;;16.02;47.01;100919.03;4998192;28;886;-57
2023/03/04 08:35:54;;;;;;;;;;;;;;;16.22;47.02;100924.63;4998494;28;1119;-58
2023/03/04 08:38:19;;;;;;;;;;;;;;;16.54;46.57;100920.09;4998731;28;1111;-56
2023/03/04 08:40:45;;;;;;;;;;;;;;;16.06;47.10;100926.47;4998717;28;1064;-57
2023/03/04 08:43:10;;;;;;;;;;;;;;;17.37;45.20;100924.63;4997947;28;1994;-55
2023/03/04 08:45:36;;;;;;;;;;;;;;;16.33;46.90;100919.19;4998155;28;1269;-56
2023/03/04 08:48:02;;;;;;;;;;;;;;;16.35;47.01;100923.28;4998402;28;1080;-56
2023/03/04 08:50:27;;;;;;;;;;;;;;;17.00;45.69;100925.72;4997813;28;1080;-56
2023/03/04 08:52:53;;;;;;;;;;;;;;;16.24;46.82;100916.13;4998610;28;1049;-57
2023/03/04 08:55:19;;;;;;;;;;;;;;;16.20;47.28;100915.84;4997826;28;1123;-56
2023/03/04 08:57:44;;;;;;;;;;;;;;;16.55;46.41;100918.97;4997852;28;939;-56
2023/03/04 09:00:11;;;;;;;;;;;;;;;16.95;46.02;100909.22;4998522;28;1088;-56
2023/03/04 09:02:36;;;;;;;;;;;;;;;18.48;42.38;100900.97;4998048;28;1973;-58
2023/03/04 09:05:02;;;;;;;;;;;;;;;16.86;45.84;100902.59;4997458;28;1128;-55
2023/03/04 09:07:27;;;;;;;;;;;;;;;16.42;46.30;100910.19;4998310;28;1068;-56
2023/03/04 09:09:53;;;;;;;;;;;;;;;16.32;46.77;100898.31;4997828;28;1255;-55
2023/03/04 09:12:19;;;;;;;;;;;;;;;16.74;46.16;100902.84;4997661;28;1087;-57
2023/03/04 09:14:44;;;;;;;;;;;;;;;16.18;46.77;100900.75;4997721;28;1108;-55
2023/03/04 09:17:10;;;;;;;;;;;;;;;16.21;46.90;100890.03;4997293;28;1056;-55
2023/03/04 09:19:35;;;;;;;;;;;;;;;16.55;46.54;100897.84;4997625;28;1116;-55
2023/03/04 09:22:01;;;;;;;;;;;;;;;17.30;45.35;100901.28;4997480;28;860;-56
2023/03/04 09:24:26;;;;;;;;;;;;;;;18.69;41.86;100895.34;4997679;28;1914;-56
2023/03/04 09:26:52;;;;;;;;;;;;;;;17.09;45.30;100891.09;4997770;28;1056;-56
2023/03/04 09:29:18;;;;;;;;;;;;;;;16.51;46.26;100890.41;4997618;28;1150;-56
2023/03/04 09:31:43;;;;;;;;;;;;;;;16.35;45.92;100879.38;4997427;28;1001;-56
2023/03/04 09:34:09;;;;;;;;;;;;;;;16.12;45.75;100875.19;4996960;28;1171;-55
2023/03/04 09:36:34;;;;;;;;;;;;;;;16.83;45.85;100878.41;4997371;28;1143;-56
2023/03/04 09:39:00;;;;;;;;;;;;;;;16.56;46.34;100877.56;4997552;28;1052;-55
2023/03/04 09:41:33;;;;;;;;;;;;;;;16.11;46.41;100879.03;4997261;28;1048;-54
2023/03/04 09:43:58;;;;;;;;;;;;;;;17.39;44.88;100859.22;5012761;28;1914;-56
2023/03/04 09:46:42;;;;;;;;;;;;;;;16.34;46.61;100861.28;5011725;28;1163;-55
2023/03/04 09:49:11;;;;;;;;;;;;;;;16.21;46.65;100856.28;5007073;28;1211;-55
2023/03/04 09:51:39;;;;;;;;;;;;;;;16.70;46.27;100853.13;4997010;28;1176;-56
2023/03/04 09:54:06;;;;;;;;;;;;;;;16.07;46.73;100851.34;4997065;28;1068;-55
2023/03/04 09:56:38;;;;;;;;;;;;;;;16.47;46.89;100848.16;5011573;28;1071;-56
2023/03/04 09:59:04;;;;;;;;;;;;;;;16.90;46.15;100855.09;4997288;28;1100;-59
2023/03/04 10:01:37;;;;;;;;;;;;;;;16.24;46.80;100850.25;4996943;28;1156;-58
2023/03/04 10:04:12;;;;;;;;;;;;;;;17.97;43.92;100849.72;4996646;28;1914;-59
2023/03/04 10:06:39;;;;;;;;;;;;;;;16.56;46.66;100841.88;4996080;28;1060;-59
2023/03/04 10:09:11;;;;;;;;;;;;;;;16.25;46.36;100840.94;5011833;28;1055;-58
2023/03/04 10:11:41;;;;;;;;;;;;;;;16.03;45.98;100836.50;4997092;28;1122;-46
2023/03/04 10:14:13;;;;;;;;;;;;;;;15.91;45.91;100836.72;4985549;28;1215;-54
2023/03/04 10:16:40;;;;;;;;;;;;;;;16.97;45.82;100837.53;4996759;28;1060;-53
2023/03/04 10:19:16;;;;;;;;;;;;;;;16.11;46.96;100832.41;4995618;28;1488;-50
2023/03/04 10:21:45;;;;;;;;;;;;;;;15.85;46.51;100824.09;5011987;28;870;-50
2023/03/04 10:24:12;;;;;;;;;;;;;;;17.07;45.79;100824.63;5012144;28;1981;-52
2023/03/04 10:26:38;;;;;;;;;;;;;;;16.30;46.78;100820.91;4997066;28;1207;-52
2023/03/04 10:29:05;;;;;;;;;;;;;;;15.89;46.80;100816.13;4996868;28;925;-52
2023/03/04 10:31:34;;;;;;;;;;;;;;;15.77;46.40;100812.75;4996661;28;1101;-51
2023/03/04 10:33:59;;;;;;;;;;;;;;;15.76;45.68;100811.13;4996288;28;1116;-54
2023/03/04 10:36:28;;;;;;;;;;;;;;;17.30;45.27;100805.91;4996943;28;1069;-53
2023/03/04 10:38:56;;;;;;;;;;;;;;;16.19;47.37;100803.63;4996971;28;1091;-53
2023/03/04 10:41:24;;;;;;;;;;;;;;;15.89;46.80;100799.66;4996776;28;1177;-54
2023/03/04 10:44:01;;;;;;;;;;;;;;;15.70;46.57;100797.38;5011246;28;1995;-54
2023/03/04 10:46:26;;;;;;;;;;;;;;;16.57;46.76;100791.34;4995850;28;1060;-53
2023/03/04 10:48:52;;;;;;;;;;;;;;;16.28;46.94;100785.53;4996467;28;1286;-55
2023/03/04 10:51:18;;;;;;;;;;;;;;;15.83;47.40;100773.34;4996463;28;1144;-55
2023/03/04 10:53:44;;;;;;;;;;;;;;;17.28;45.19;100775.13;4996629;28;1166;-54
2023/03/04 10:56:28;;;;;;;;;;;;;;;16.13;47.33;100766.28;5011304;28;1139;-52
2023/03/04 10:58:55;;;;;;;;;;;;;;;15.94;46.54;100764.06;4994302;28;870;-53
2023/03/04 11:01:24;;;;;;;;;;;;;;;16.95;46.09;100755.41;5011207;28;1298;-55
2023/03/04 11:03:50;;;;;;;;;;;;;;;16.10;47.33;100748.44;4996517;28;1981;-54
2023/03/04 11:06:18;;;;;;;;;;;;;;;16.83;46.43;100749.31;5011664;28;1226;-55
2023/03/04 11:08:43;;;;;;;;;;;;;;;16.36;47.17;100749.31;4996152;28;1149;-52
2023/03/04 11:11:22;;;;;;;;;;;;;;;15.91;47.14;100742.66;5011313;28;942;-54
2023/03/04 11:13:52;;;;;;;;;;;;;;;15.83;46.81;100734.94;4996492;28;1108;-53
2023/03/04 11:16:22;;;;;;;;;;;;;;;16.94;46.08;100726.28;5011684;28;1077;-51
2023/03/04 11:18:52;;;;;;;;;;;;;;;17.05;46.13;100724.34;5011338;28;1073;-49
2023/03/04 11:21:28;;;;;;;;;;;;;;;18.49;43.12;100712.63;4996126;28;1033;-53
2023/03/04 11:24:13;;;;;;;;;;;;;;;17.08;45.98;100713.63;5011694;28;1914;-50
2023/03/04 11:26:44;;;;;;;;;;;;;;;16.53;46.71;100718.06;5011328;28;1057;-52
2023/03/04 11:29:12;;;;;;;;;;;;;;;16.36;46.00;100701.84;4995707;28;1088;-52
2023/03/04 11:31:44;;;;;;;;;;;;;;;16.11;46.10;100703.47;4996289;28;1028;-49
2023/03/04 11:34:24;;;;;;;;;;;;;;;17.54;45.21;100695.31;4995896;28;1144;-54
2023/03/04 11:36:59;;;;;;;;;;;;;;;16.47;46.89;100692.53;4996160;28;1072;-53
2023/03/04 11:39:31;;;;;;;;;;;;;;;16.10;46.84;100685.34;4984697;28;946;-54
2023/03/04 11:42:10;;;;;;;;;;;;;;;16.25;46.72;100687.31;4999721;28;1044;-54
2023/03/04 11:44:36;;;;;;;;;;;;;;;16.80;46.50;100686.72;5014865;28;1910;-51
2023/03/04 11:47:17;;;;;;;;;;;;;;;16.20;47.01;100681.81;5014101;28;1032;-53
2023/03/04 11:49:52;;;;;;;;;;;;;;;17.22;46.18;100672.66;4999577;28;1219;-54
2023/03/04 11:52:17;;;;;;;;;;;;;;;16.45;47.14;100682.91;5003386;28;1101;-53
2023/03/04 11:54:46;;;;;;;;;;;;;;;16.08;47.02;100680.16;4998552;28;1163;-52
2023/03/04 11:57:16;;;;;;;;;;;;;;;17.19;46.15;100677.88;4998774;28;1274;-52
2023/03/04 11:59:44;;;;;;;;;;;;;;;16.33;47.22;100675.78;5013631;28;1309;-55
2023/03/04 12:02:10;;;;;;;;;;;;;;;16.76;46.75;100676.31;4998852;28;1215;-54
2023/03/04 12:04:54;;;;;;;;;;;;;;;17.05;46.29;100666.66;4999346;28;1910;-54
2023/03/04 12:07:21;;;;;;;;;;;;;;;16.26;47.45;100669.75;4999413;28;1119;-54
2023/03/04 12:09:47;;;;;;;;;;;;;;;16.11;46.51;100670.56;4999003;28;1210;-54
2023/03/04 12:12:21;;;;;;;;;;;;;;;17.02;46.14;100667.22;4999523;28;1071;-54
2023/03/04 12:14:52;;;;;;;;;;;;;;;16.15;47.40;100670.84;4999466;28;1065;-54
2023/03/04 12:17:21;;;;;;;;;;;;;;;17.21;46.21;100670.19;5014547;28;1136;-54
2023/03/04 12:19:47;;;;;;;;;;;;;;;16.65;46.91;100674.69;5014232;28;1080;-54
2023/03/04 12:22:16;;;;;;;;;;;;;;;16.19;47.36;100675.50;4998896;28;1128;-54
2023/03/04 12:25:00;;;;;;;;;;;;;;;16.03;46.90;100671.94;4998950;28;1906;-53
2023/03/04 12:27:38;;;;;;;;;;;;;;;17.03;45.93;100669.69;4998840;28;1076;-53
2023/03/04 12:30:22;;;;;;;;;;;;;;;16.16;47.34;100662.34;4999028;28;1040;-52
2023/03/04 12:32:48;;;;;;;;;;;;;;;15.92;47.03;100672.97;4998690;28;1133;-52
2023/03/04 12:35:19;;;;;;;;;;;;;;;17.11;45.86;100668.28;4998542;28;938;-52
2023/03/04 12:37:50;;;;;;;;;;;;;;;16.17;47.32;100663.16;4998427;28;1016;-53
2023/03/04 12:40:28;;;;;;;;;;;;;;;16.05;47.41;100658.75;5013877;28;1059;-51
2023/03/04 12:42:57;;;;;;;;;;;;;;;16.51;47.23;100663.44;5013592;28;1985;-55
2023/03/04 12:45:35;;;;;;;;;;;;;;;16.11;47.06;100659.59;4998256;28;1049;-55
2023/03/04 12:48:19;;;;;;;;;;;;;;;15.86;46.65;100658.44;4979180;28;1175;-55